WetterOnline ( https://www.wetteronline.de )

Wetter aktuell Argenbühl

Aktuelles Wetter: Leutkirch-Herlazhofen (671m)

6-stündlich | Neueste Meldungen
Ortszeit Temperatur Wetter
Mo, 22.07. 8:00 17.6° C bedeckt
Mo, 22.07. 2:00 17.2° C wolkig
So, 21.07. 20:00 23.7° C wolkig
So, 21.07. 14:00 25.9° C wolkig
So, 21.07. 8:00 18.2° C wolkenlos
So, 21.07. 2:00 14.8° C wolkenlos
Sa, 20.07. 20:00 26.5° C fast wolkenlos
Sa, 20.07. 14:00 26.2° C leicht bewölkt
Ortszeit Temperatur Wetter
Mo, 22.07. 9:30 18.5° C bedeckt
Mo, 22.07. 9:20 18.5° C bedeckt
Mo, 22.07. 9:10 18.5° C Sprühregen
Mo, 22.07. 9:00 18.8° C bedeckt
Mo, 22.07. 8:50 18.8° C bedeckt
Mo, 22.07. 8:40 18.6° C bewölkt
Mo, 22.07. 8:30 18.4° C bewölkt
Mo, 22.07. 8:00 17.6° C bedeckt
Mo, 22.07. 7:30 17.4° C bewölkt
Mo, 22.07. 7:00 17.1° C wolkig
Mo, 22.07. 6:30 16.7° C fast wolkenlos
Ortszeit Relative Feuchte Sichtweite
Mo, 22.07. 8:00 93% 55 km
Mo, 22.07. 2:00 94% 55 km
So, 21.07. 20:00 71% 65 km
So, 21.07. 14:00 59% 35 km
So, 21.07. 8:00 81% 50 km
So, 21.07. 2:00 95% 23 km
Sa, 20.07. 20:00 49% 50 km
Sa, 20.07. 14:00 59% 35 km
Ortszeit Relative Feuchte Sichtweite
Mo, 22.07. 9:30 91% 40 km
Mo, 22.07. 9:20 91% -
Mo, 22.07. 9:10 92% -
Mo, 22.07. 9:00 92% 40 km
Mo, 22.07. 8:50 92% -
Mo, 22.07. 8:40 91% -
Mo, 22.07. 8:30 92% 40 km
Mo, 22.07. 8:00 93% 55 km
Mo, 22.07. 7:30 92% 40 km
Mo, 22.07. 7:00 93% 40 km
Mo, 22.07. 6:30 94% 40 km
Ortszeit Niederschlagsmenge Niederschlagsart
Mo, 22.07. 8:00 32 l/m2 in 12 Std. -
Mo, 22.07. 2:00 32 l/m2 in 6 Std. Regen
So, 21.07. 20:00 0.0 l/m2 in 12 Std. -
So, 21.07. 14:00 0.0 l/m2 in 6 Std. -
So, 21.07. 8:00 0.0 l/m2 in 12 Std. -
So, 21.07. 2:00 0.0 l/m2 in 6 Std. -
Sa, 20.07. 20:00 0.0 l/m2 in 12 Std. -
Sa, 20.07. 14:00 0.0 l/m2 in 6 Std. -
Ortszeit Niederschlagsmenge Niederschlagsart
Mo, 22.07. 9:30 <0.05 l/m2 in 30 Min Schneeregen
Mo, 22.07. 9:20 keine Meldung -
Mo, 22.07. 9:10 keine Meldung -
Mo, 22.07. 9:00 0.0 l/m2 in 1 Std. -
Mo, 22.07. 8:50 keine Meldung -
Mo, 22.07. 8:40 keine Meldung -
Mo, 22.07. 8:30 0.0 l/m2 in 30 Min -
Mo, 22.07. 8:00 0.0 l/m2 in 1 Std. -
Mo, 22.07. 7:30 0.0 l/m2 in 30 Min -
Mo, 22.07. 7:00 0.0 l/m2 in 1 Std. -
Mo, 22.07. 6:30 0.0 l/m2 in 30 Min -
Ortszeit Stärke Spitze Richtung
km/h Bft. km/h Grad Sektor
Mo, 22.07. 8:00 7 2 18 200° S
Mo, 22.07. 2:00 7 2 50 220° SW
So, 21.07. 20:00 17 3 24 220° SW
So, 21.07. 14:00 6 1 35 200° S
So, 21.07. 8:00 7 2 9 120° SO
So, 21.07. 2:00 4 1 7 120° SO
Sa, 20.07. 20:00 4 1 22 60° NO
Sa, 20.07. 14:00 11 2 25 250° W
Ortszeit Stärke Spitze Richtung
km/h Bft. km/h Grad Sektor
Mo, 22.07. 9:30 13 3 19 230° SW
Mo, 22.07. 9:20 13 3 - 230° SW
Mo, 22.07. 9:10 13 3 - 230° SW
Mo, 22.07. 9:00 13 3 20 230° SW
Mo, 22.07. 8:50 13 3 - 230° SW
Mo, 22.07. 8:40 13 3 - 230° SW
Mo, 22.07. 8:30 13 3 20 210° SW
Mo, 22.07. 8:00 7 2 11 200° S
Mo, 22.07. 7:30 4 1 7 170° S
Mo, 22.07. 7:00 7 2 14 200° S
Mo, 22.07. 6:30 7 2 14 210° SW
Ortszeit Untergrenze Bedeckung Gattung
total tief tief mittel hoch
Mo, 22.07. 8:00 300 m 8/8 8/8 - - -
Mo, 22.07. 2:00 960 m 7/8 2/8 - - -
So, 21.07. 20:00 1800 m 7/8 4/8 - - -
So, 21.07. 14:00 3300 m 5/8 5/8 - - -
So, 21.07. 8:00 - 0/8 0/8 - - -
So, 21.07. 2:00 - 0/8 0/8 - - -
Sa, 20.07. 20:00 9000 m 1/8 0/8 - - -
Sa, 20.07. 14:00 3000 m 5/8 3/8 - - -
Ortszeit Bedeckungsgrad in Achtel und Wolkenuntergrenze
Mo, 22.07. 9:30 2(240m) 7(1230m) 8(1800m)
Mo, 22.07. 9:20 2(240m) 7(1230m) 8(1800m)
Mo, 22.07. 9:10 8
Mo, 22.07. 9:00 2(270m) 6(1020m) 8(1500m)
Mo, 22.07. 8:50 2(270m) 6(1020m) 8(1500m)
Mo, 22.07. 8:40 7
Mo, 22.07. 8:30 2(750m) 7(990m)
Mo, 22.07. 8:00 4(300m) 8(720m) 8(3900m)
Mo, 22.07. 7:30 6(720m) 7(1170m)
Mo, 22.07. 7:00 4(720m) 6(9000m) 7(10500m)
Mo, 22.07. 6:30 2(10500m)
Ortszeit Luftdruck NN (hPa) Tendenz (hPa in 3 Std.)
Mo, 22.07. 8:00 1016 + 1,6
Mo, 22.07. 2:00 1015 + 0,4
So, 21.07. 20:00 1008 + 1,0
So, 21.07. 14:00 1007 - 0,7
So, 21.07. 8:00 1009 + 0,8
So, 21.07. 2:00 1010 - 0,5
Sa, 20.07. 20:00 1007 - 0,9
Sa, 20.07. 14:00 1009 - 1,2
Ortszeit Luftdruck NN (hPa) Tendenz (hPa in 3 Std.)
Mo, 22.07. 9:30 1017 + 1,3
Mo, 22.07. 9:20 1017 keine Meldung
Mo, 22.07. 9:10 1017 keine Meldung
Mo, 22.07. 9:00 1016 + 1,5
Mo, 22.07. 8:50 1016 keine Meldung
Mo, 22.07. 8:40 1016 keine Meldung
Mo, 22.07. 8:30 1016 + 1,5
Mo, 22.07. 8:00 1016 + 1,6
Mo, 22.07. 7:30 1016 + 1,5
Mo, 22.07. 7:00 1016 + 1,2
Mo, 22.07. 6:30 1016 + 0,9
Ortszeit Schneehöhe (cm)
Mo, 22.07. 8:00 0
Mo, 22.07. 2:00 0
So, 21.07. 20:00 0
So, 21.07. 14:00 0
So, 21.07. 8:00 0
So, 21.07. 2:00 0
Sa, 20.07. 20:00 0
Sa, 20.07. 14:00 0
Ortszeit Schneehöhe (cm)
Mo, 22.07. 9:30 0
Mo, 22.07. 9:20 0
Mo, 22.07. 9:10 -
Mo, 22.07. 9:00 0
Mo, 22.07. 8:50 0
Mo, 22.07. 8:40 -
Mo, 22.07. 8:30 0
Mo, 22.07. 8:00 0
Mo, 22.07. 7:30 0
Mo, 22.07. 7:00 0
Mo, 22.07. 6:30 0
Link zu dieser Seite / Seite empfehlen

Das Wetter in ...